Terminal Aerodrome Forecast
Issued by NWS

Home | Current Version | Previous Version | Text Only | Print | Product List | Glossary On
Versions: 1 2 3 4 5 6 7 8 9 10 11 12 13 14 15 16 17 18 19 20 21
000
FTUS43 KDTX 202320
TAFYIP
TAF
KYIP 202320Z 2100/2124 16004KT P6SM SKC
     FM210700 17003KT 4SM BR FEW040 BKN250
     FM210900 VRB03KT 2SM BR SCT035
     FM211300 17006KT P6SM SCT040=

USA.gov is the U.S. government's official web portal to all federal, state and local government web resources and services.